sensor_id;sensor_type;location;lat;lon;timestamp;temperature;humidity
64620;DHT22;51029;51.058;13.826;2023-10-08T00:02:24;18.70;99.90
64620;DHT22;51029;51.058;13.826;2023-10-08T00:04:51;18.70;99.90
64620;DHT22;51029;51.058;13.826;2023-10-08T00:07:17;18.60;99.90
64620;DHT22;51029;51.058;13.826;2023-10-08T00:09:50;18.60;99.90
64620;DHT22;51029;51.058;13.826;2023-10-08T00:12:19;18.60;99.90
64620;DHT22;51029;51.058;13.826;2023-10-08T00:14:46;18.60;99.90
64620;DHT22;51029;51.058;13.826;2023-10-08T00:17:16;18.70;99.90
64620;DHT22;51029;51.058;13.826;2023-10-08T00:19:42;18.70;99.90
64620;DHT22;51029;51.058;13.826;2023-10-08T00:22:10;18.70;99.90
64620;DHT22;51029;51.058;13.826;2023-10-08T00:24:36;18.70;99.90
64620;DHT22;51029;51.058;13.826;2023-10-08T00:27:03;18.60;99.90
64620;DHT22;51029;51.058;13.826;2023-10-08T00:29:32;18.40;99.90
64620;DHT22;51029;51.058;13.826;2023-10-08T00:31:58;18.30;99.90
64620;DHT22;51029;51.058;13.826;2023-10-08T00:34:23;18.20;99.90
64620;DHT22;51029;51.058;13.826;2023-10-08T00:36:50;18.10;99.90
64620;DHT22;51029;51.058;13.826;2023-10-08T00:39:16;18.00;99.90
64620;DHT22;51029;51.058;13.826;2023-10-08T00:41:48;18.00;99.90
64620;DHT22;51029;51.058;13.826;2023-10-08T00:44:15;17.80;99.90
64620;DHT22;51029;51.058;13.826;2023-10-08T00:46:47;17.80;99.90
64620;DHT22;51029;51.058;13.826;2023-10-08T00:49:23;17.70;99.90
64620;DHT22;51029;51.058;13.826;2023-10-08T00:52:09;17.60;99.90
64620;DHT22;51029;51.058;13.826;2023-10-08T00:54:36;17.50;99.90
64620;DHT22;51029;51.058;13.826;2023-10-08T00:57:31;17.40;99.90
64620;DHT22;51029;51.058;13.826;2023-10-08T01:00:04;17.30;99.90
64620;DHT22;51029;51.058;13.826;2023-10-08T01:02:32;17.20;99.90
64620;DHT22;51029;51.058;13.826;2023-10-08T01:05:25;17.10;99.90
64620;DHT22;51029;51.058;13.826;2023-10-08T01:08:11;17.10;99.90
64620;DHT22;51029;51.058;13.826;2023-10-08T01:10:38;17.10;99.90
64620;DHT22;51029;51.058;13.826;2023-10-08T01:13:06;17.10;99.90
64620;DHT22;51029;51.058;13.826;2023-10-08T01:15:39;17.00;99.90
64620;DHT22;51029;51.058;13.826;2023-10-08T01:18:06;17.00;99.90
64620;DHT22;51029;51.058;13.826;2023-10-08T01:20:40;17.00;99.90
64620;DHT22;51029;51.058;13.826;2023-10-08T01:23:18;17.00;99.90
64620;DHT22;51029;51.058;13.826;2023-10-08T01:25:47;16.90;99.90
64620;DHT22;51029;51.058;13.826;2023-10-08T01:28:44;16.90;99.90
64620;DHT22;51029;51.058;13.826;2023-10-08T01:31:10;16.90;99.90
64620;DHT22;51029;51.058;13.826;2023-10-08T01:33:38;16.80;99.90
64620;DHT22;51029;51.058;13.826;2023-10-08T01:36:04;16.80;99.90
64620;DHT22;51029;51.058;13.826;2023-10-08T01:38:31;16.70;99.90
64620;DHT22;51029;51.058;13.826;2023-10-08T01:40:58;16.70;99.90
64620;DHT22;51029;51.058;13.826;2023-10-08T01:43:28;16.70;99.90
64620;DHT22;51029;51.058;13.826;2023-10-08T01:45:55;16.70;99.90
64620;DHT22;51029;51.058;13.826;2023-10-08T01:48:20;16.60;99.90
64620;DHT22;51029;51.058;13.826;2023-10-08T01:50:59;16.60;99.90
64620;DHT22;51029;51.058;13.826;2023-10-08T01:53:27;16.60;99.90
64620;DHT22;51029;51.058;13.826;2023-10-08T01:55:53;16.60;99.90
64620;DHT22;51029;51.058;13.826;2023-10-08T01:58:21;16.50;99.90
64620;DHT22;51029;51.058;13.826;2023-10-08T02:00:48;16.40;99.90
64620;DHT22;51029;51.058;13.826;2023-10-08T02:03:16;16.20;99.90
64620;DHT22;51029;51.058;13.826;2023-10-08T02:05:44;16.00;99.90
64620;DHT22;51029;51.058;13.826;2023-10-08T02:08:11;15.80;99.90
64620;DHT22;51029;51.058;13.826;2023-10-08T02:10:41;15.60;99.90
64620;DHT22;51029;51.058;13.826;2023-10-08T02:13:08;15.40;99.90
64620;DHT22;51029;51.058;13.826;2023-10-08T02:15:42;15.20;99.90
64620;DHT22;51029;51.058;13.826;2023-10-08T02:18:08;15.00;99.90
64620;DHT22;51029;51.058;13.826;2023-10-08T02:20:34;14.80;99.90
64620;DHT22;51029;51.058;13.826;2023-10-08T02:23:00;14.70;99.90
64620;DHT22;51029;51.058;13.826;2023-10-08T02:25:26;14.60;99.90
64620;DHT22;51029;51.058;13.826;2023-10-08T02:27:52;14.50;99.90
64620;DHT22;51029;51.058;13.826;2023-10-08T02:30:17;14.40;99.90
64620;DHT22;51029;51.058;13.826;2023-10-08T02:32:43;14.40;99.90
64620;DHT22;51029;51.058;13.826;2023-10-08T02:35:10;14.20;99.90
64620;DHT22;51029;51.058;13.826;2023-10-08T02:37:39;14.20;99.90
64620;DHT22;51029;51.058;13.826;2023-10-08T02:40:09;14.20;99.90
64620;DHT22;51029;51.058;13.826;2023-10-08T02:42:51;14.10;99.90
64620;DHT22;51029;51.058;13.826;2023-10-08T02:45:16;14.10;99.90
64620;DHT22;51029;51.058;13.826;2023-10-08T02:47:43;14.00;99.90
64620;DHT22;51029;51.058;13.826;2023-10-08T02:50:12;14.00;99.90
64620;DHT22;51029;51.058;13.826;2023-10-08T02:52:42;13.90;99.90
64620;DHT22;51029;51.058;13.826;2023-10-08T02:55:07;13.90;99.90
64620;DHT22;51029;51.058;13.826;2023-10-08T02:57:43;13.90;99.90
64620;DHT22;51029;51.058;13.826;2023-10-08T03:00:10;13.80;99.90
64620;DHT22;51029;51.058;13.826;2023-10-08T03:02:38;13.80;99.90
64620;DHT22;51029;51.058;13.826;2023-10-08T03:05:05;13.70;99.90
64620;DHT22;51029;51.058;13.826;2023-10-08T03:07:33;13.70;99.90
64620;DHT22;51029;51.058;13.826;2023-10-08T03:10:01;13.70;99.90
64620;DHT22;51029;51.058;13.826;2023-10-08T03:12:29;13.70;99.90
64620;DHT22;51029;51.058;13.826;2023-10-08T03:14:58;13.60;99.90
64620;DHT22;51029;51.058;13.826;2023-10-08T03:17:38;13.60;99.90
64620;DHT22;51029;51.058;13.826;2023-10-08T03:20:15;13.60;99.90
64620;DHT22;51029;51.058;13.826;2023-10-08T03:22:55;13.50;99.90
64620;DHT22;51029;51.058;13.826;2023-10-08T03:25:22;13.50;99.90
64620;DHT22;51029;51.058;13.826;2023-10-08T03:27:50;13.50;99.90
64620;DHT22;51029;51.058;13.826;2023-10-08T03:30:15;13.40;99.90
64620;DHT22;51029;51.058;13.826;2023-10-08T03:32:44;13.40;99.90
64620;DHT22;51029;51.058;13.826;2023-10-08T03:35:10;13.30;99.90
64620;DHT22;51029;51.058;13.826;2023-10-08T03:37:39;13.20;99.90
64620;DHT22;51029;51.058;13.826;2023-10-08T03:40:12;13.10;99.90
64620;DHT22;51029;51.058;13.826;2023-10-08T03:43:08;13.00;99.90
64620;DHT22;51029;51.058;13.826;2023-10-08T03:45:45;12.90;99.90
64620;DHT22;51029;51.058;13.826;2023-10-08T03:48:22;12.80;99.90
64620;DHT22;51029;51.058;13.826;2023-10-08T03:50:48;12.60;99.90
64620;DHT22;51029;51.058;13.826;2023-10-08T03:53:22;12.40;99.90
64620;DHT22;51029;51.058;13.826;2023-10-08T03:55:48;12.30;99.90
64620;DHT22;51029;51.058;13.826;2023-10-08T03:58:17;12.30;99.90
64620;DHT22;51029;51.058;13.826;2023-10-08T04:01:03;12.30;99.90
64620;DHT22;51029;51.058;13.826;2023-10-08T04:03:43;12.30;99.90
64620;DHT22;51029;51.058;13.826;2023-10-08T04:06:29;12.20;99.90
64620;DHT22;51029;51.058;13.826;2023-10-08T04:08:57;12.20;99.90
64620;DHT22;51029;51.058;13.826;2023-10-08T04:11:35;12.20;99.90
64620;DHT22;51029;51.058;13.826;2023-10-08T04:14:01;12.10;99.90
64620;DHT22;51029;51.058;13.826;2023-10-08T04:16:28;12.10;99.90
64620;DHT22;51029;51.058;13.826;2023-10-08T04:18:54;12.00;99.90
64620;DHT22;51029;51.058;13.826;2023-10-08T04:21:22;11.90;99.90
64620;DHT22;51029;51.058;13.826;2023-10-08T04:23:48;11.90;99.90
64620;DHT22;51029;51.058;13.826;2023-10-08T04:26:18;11.80;99.90
64620;DHT22;51029;51.058;13.826;2023-10-08T04:28:50;11.80;99.90
64620;DHT22;51029;51.058;13.826;2023-10-08T04:31:15;11.80;99.90
64620;DHT22;51029;51.058;13.826;2023-10-08T04:33:43;11.70;99.90
64620;DHT22;51029;51.058;13.826;2023-10-08T04:36:10;11.70;99.90
64620;DHT22;51029;51.058;13.826;2023-10-08T04:38:35;11.60;99.90
64620;DHT22;51029;51.058;13.826;2023-10-08T04:41:06;11.70;99.90
64620;DHT22;51029;51.058;13.826;2023-10-08T04:43:35;11.60;99.90
64620;DHT22;51029;51.058;13.826;2023-10-08T04:46:04;11.60;99.90
64620;DHT22;51029;51.058;13.826;2023-10-08T04:48:47;11.50;99.90
64620;DHT22;51029;51.058;13.826;2023-10-08T04:51:12;11.40;99.90
64620;DHT22;51029;51.058;13.826;2023-10-08T04:53:38;11.30;99.90
64620;DHT22;51029;51.058;13.826;2023-10-08T04:56:08;11.40;99.90
64620;DHT22;51029;51.058;13.826;2023-10-08T04:58:43;11.30;99.90
64620;DHT22;51029;51.058;13.826;2023-10-08T05:01:16;11.30;99.90
64620;DHT22;51029;51.058;13.826;2023-10-08T05:03:52;11.30;99.90
64620;DHT22;51029;51.058;13.826;2023-10-08T05:06:28;11.20;99.90
64620;DHT22;51029;51.058;13.826;2023-10-08T05:09:12;11.20;99.90
64620;DHT22;51029;51.058;13.826;2023-10-08T05:11:51;11.10;99.90
64620;DHT22;51029;51.058;13.826;2023-10-08T05:14:24;11.20;99.90
64620;DHT22;51029;51.058;13.826;2023-10-08T05:16:56;11.20;99.90
64620;DHT22;51029;51.058;13.826;2023-10-08T05:19:48;11.20;99.90
64620;DHT22;51029;51.058;13.826;2023-10-08T05:22:23;11.20;99.90
64620;DHT22;51029;51.058;13.826;2023-10-08T05:24:58;11.10;99.90
64620;DHT22;51029;51.058;13.826;2023-10-08T05:27:45;11.10;99.90
64620;DHT22;51029;51.058;13.826;2023-10-08T05:30:19;11.00;99.90
64620;DHT22;51029;51.058;13.826;2023-10-08T05:32:56;11.00;99.90
64620;DHT22;51029;51.058;13.826;2023-10-08T05:35:39;11.00;99.90
64620;DHT22;51029;51.058;13.826;2023-10-08T05:38:12;11.00;99.90
64620;DHT22;51029;51.058;13.826;2023-10-08T05:40:47;11.00;99.90
64620;DHT22;51029;51.058;13.826;2023-10-08T05:43:22;11.10;99.90
64620;DHT22;51029;51.058;13.826;2023-10-08T05:46:13;11.10;99.90
64620;DHT22;51029;51.058;13.826;2023-10-08T05:48:44;11.10;99.90
64620;DHT22;51029;51.058;13.826;2023-10-08T05:51:27;11.10;99.90
64620;DHT22;51029;51.058;13.826;2023-10-08T05:54:19;11.00;99.90
64620;DHT22;51029;51.058;13.826;2023-10-08T05:57:02;11.00;99.90
64620;DHT22;51029;51.058;13.826;2023-10-08T05:59:44;10.90;99.90
64620;DHT22;51029;51.058;13.826;2023-10-08T06:02:41;10.80;99.90
64620;DHT22;51029;51.058;13.826;2023-10-08T06:05:10;10.80;99.90
64620;DHT22;51029;51.058;13.826;2023-10-08T06:07:40;10.90;99.90
64620;DHT22;51029;51.058;13.826;2023-10-08T06:10:26;10.80;99.90
64620;DHT22;51029;51.058;13.826;2023-10-08T06:13:09;10.80;99.90
64620;DHT22;51029;51.058;13.826;2023-10-08T06:15:56;10.70;99.90
64620;DHT22;51029;51.058;13.826;2023-10-08T06:18:29;10.70;99.90
64620;DHT22;51029;51.058;13.826;2023-10-08T06:20:59;10.60;99.90
64620;DHT22;51029;51.058;13.826;2023-10-08T06:23:29;10.70;99.90
64620;DHT22;51029;51.058;13.826;2023-10-08T06:25:58;10.60;99.90
64620;DHT22;51029;51.058;13.826;2023-10-08T06:28:37;10.60;99.90
64620;DHT22;51029;51.058;13.826;2023-10-08T06:31:04;10.60;99.90
64620;DHT22;51029;51.058;13.826;2023-10-08T06:33:32;10.60;99.90
64620;DHT22;51029;51.058;13.826;2023-10-08T06:36:02;10.60;99.90
64620;DHT22;51029;51.058;13.826;2023-10-08T06:38:34;10.50;99.90
64620;DHT22;51029;51.058;13.826;2023-10-08T06:41:01;10.50;99.90
64620;DHT22;51029;51.058;13.826;2023-10-08T06:43:34;10.60;99.90
64620;DHT22;51029;51.058;13.826;2023-10-08T06:46:02;10.60;99.90
64620;DHT22;51029;51.058;13.826;2023-10-08T06:48:28;10.60;99.90
64620;DHT22;51029;51.058;13.826;2023-10-08T06:50:55;10.50;99.90
64620;DHT22;51029;51.058;13.826;2023-10-08T06:53:24;10.50;99.90
64620;DHT22;51029;51.058;13.826;2023-10-08T06:55:50;10.50;99.90
64620;DHT22;51029;51.058;13.826;2023-10-08T06:58:32;10.40;99.90
64620;DHT22;51029;51.058;13.826;2023-10-08T07:00:58;10.40;99.90
64620;DHT22;51029;51.058;13.826;2023-10-08T07:03:24;10.40;99.90
64620;DHT22;51029;51.058;13.826;2023-10-08T07:05:51;10.40;99.90
64620;DHT22;51029;51.058;13.826;2023-10-08T07:08:32;10.50;99.90
64620;DHT22;51029;51.058;13.826;2023-10-08T07:11:00;10.50;99.90
64620;DHT22;51029;51.058;13.826;2023-10-08T07:13:34;10.40;99.90
64620;DHT22;51029;51.058;13.826;2023-10-08T07:16:01;10.40;99.90
64620;DHT22;51029;51.058;13.826;2023-10-08T07:18:29;10.40;99.90
64620;DHT22;51029;51.058;13.826;2023-10-08T07:20:58;10.40;99.90
64620;DHT22;51029;51.058;13.826;2023-10-08T07:23:28;10.50;99.90
64620;DHT22;51029;51.058;13.826;2023-10-08T07:26:03;10.50;99.90
64620;DHT22;51029;51.058;13.826;2023-10-08T07:28:44;10.60;99.90
64620;DHT22;51029;51.058;13.826;2023-10-08T07:33:48;10.70;99.90
64620;DHT22;51029;51.058;13.826;2023-10-08T07:36:21;10.70;99.90
64620;DHT22;51029;51.058;13.826;2023-10-08T07:38:46;10.70;99.90
64620;DHT22;51029;51.058;13.826;2023-10-08T07:41:13;10.60;99.90
64620;DHT22;51029;51.058;13.826;2023-10-08T07:43:40;10.70;99.90
64620;DHT22;51029;51.058;13.826;2023-10-08T07:46:10;10.70;99.90
64620;DHT22;51029;51.058;13.826;2023-10-08T07:48:36;10.80;99.90
64620;DHT22;51029;51.058;13.826;2023-10-08T07:51:07;10.80;99.90
64620;DHT22;51029;51.058;13.826;2023-10-08T07:53:33;10.90;99.90
64620;DHT22;51029;51.058;13.826;2023-10-08T07:56:06;10.90;99.90
64620;DHT22;51029;51.058;13.826;2023-10-08T07:58:35;10.90;99.90
64620;DHT22;51029;51.058;13.826;2023-10-08T08:01:06;10.80;99.90
64620;DHT22;51029;51.058;13.826;2023-10-08T08:03:36;10.80;99.90
64620;DHT22;51029;51.058;13.826;2023-10-08T08:06:05;10.80;99.90
64620;DHT22;51029;51.058;13.826;2023-10-08T08:08:32;10.80;99.90
64620;DHT22;51029;51.058;13.826;2023-10-08T08:10:59;10.90;99.90
64620;DHT22;51029;51.058;13.826;2023-10-08T08:13:29;10.90;99.90
64620;DHT22;51029;51.058;13.826;2023-10-08T08:15:58;10.90;99.90
64620;DHT22;51029;51.058;13.826;2023-10-08T08:18:36;11.00;99.90
64620;DHT22;51029;51.058;13.826;2023-10-08T08:21:02;11.00;99.90
64620;DHT22;51029;51.058;13.826;2023-10-08T08:23:29;11.00;99.90
64620;DHT22;51029;51.058;13.826;2023-10-08T08:25:55;11.00;99.90
64620;DHT22;51029;51.058;13.826;2023-10-08T08:28:32;11.10;99.90
64620;DHT22;51029;51.058;13.826;2023-10-08T08:31:05;11.00;99.90
64620;DHT22;51029;51.058;13.826;2023-10-08T08:33:40;11.10;99.90
64620;DHT22;51029;51.058;13.826;2023-10-08T08:36:30;11.10;99.90
64620;DHT22;51029;51.058;13.826;2023-10-08T08:38:57;11.10;99.90
64620;DHT22;51029;51.058;13.826;2023-10-08T08:41:23;11.20;99.90
64620;DHT22;51029;51.058;13.826;2023-10-08T08:43:51;11.10;99.90
64620;DHT22;51029;51.058;13.826;2023-10-08T08:46:42;11.20;99.90
64620;DHT22;51029;51.058;13.826;2023-10-08T08:49:10;11.10;99.90
64620;DHT22;51029;51.058;13.826;2023-10-08T08:51:37;11.00;99.90
64620;DHT22;51029;51.058;13.826;2023-10-08T08:54:03;11.00;99.90
64620;DHT22;51029;51.058;13.826;2023-10-08T08:56:36;11.10;99.90
64620;DHT22;51029;51.058;13.826;2023-10-08T08:59:04;11.20;99.90
64620;DHT22;51029;51.058;13.826;2023-10-08T09:01:30;11.20;99.90
64620;DHT22;51029;51.058;13.826;2023-10-08T09:04:02;11.20;99.90
64620;DHT22;51029;51.058;13.826;2023-10-08T09:06:32;11.20;99.90
64620;DHT22;51029;51.058;13.826;2023-10-08T09:09:02;11.10;99.90
64620;DHT22;51029;51.058;13.826;2023-10-08T09:11:51;11.00;99.90
64620;DHT22;51029;51.058;13.826;2023-10-08T09:14:21;11.00;99.90
64620;DHT22;51029;51.058;13.826;2023-10-08T09:16:47;11.00;99.90
64620;DHT22;51029;51.058;13.826;2023-10-08T09:19:13;11.00;99.90
64620;DHT22;51029;51.058;13.826;2023-10-08T09:22:17;10.90;99.90
64620;DHT22;51029;51.058;13.826;2023-10-08T09:24:41;11.00;99.90
64620;DHT22;51029;51.058;13.826;2023-10-08T09:27:08;11.00;99.90
64620;DHT22;51029;51.058;13.826;2023-10-08T09:29:35;11.00;99.90
64620;DHT22;51029;51.058;13.826;2023-10-08T09:32:06;11.00;99.90
64620;DHT22;51029;51.058;13.826;2023-10-08T09:34:33;11.10;99.90
64620;DHT22;51029;51.058;13.826;2023-10-08T09:36:59;11.10;99.90
64620;DHT22;51029;51.058;13.826;2023-10-08T09:39:26;11.20;99.90
64620;DHT22;51029;51.058;13.826;2023-10-08T09:41:57;11.30;99.90
64620;DHT22;51029;51.058;13.826;2023-10-08T09:44:25;11.40;99.90
64620;DHT22;51029;51.058;13.826;2023-10-08T09:49:38;11.40;99.90
64620;DHT22;51029;51.058;13.826;2023-10-08T09:52:04;11.50;99.90
64620;DHT22;51029;51.058;13.826;2023-10-08T09:54:37;11.40;99.90
64620;DHT22;51029;51.058;13.826;2023-10-08T09:57:08;11.30;99.90
64620;DHT22;51029;51.058;13.826;2023-10-08T09:59:35;11.30;99.90
64620;DHT22;51029;51.058;13.826;2023-10-08T10:02:03;11.50;99.90
64620;DHT22;51029;51.058;13.826;2023-10-08T10:04:31;11.50;99.90
64620;DHT22;51029;51.058;13.826;2023-10-08T10:07:09;11.70;99.90
64620;DHT22;51029;51.058;13.826;2023-10-08T10:09:38;11.80;99.90
64620;DHT22;51029;51.058;13.826;2023-10-08T10:12:05;12.10;99.90
64620;DHT22;51029;51.058;13.826;2023-10-08T10:14:55;12.70;99.90
64620;DHT22;51029;51.058;13.826;2023-10-08T10:17:28;13.00;99.90
64620;DHT22;51029;51.058;13.826;2023-10-08T10:20:00;13.10;99.90
64620;DHT22;51029;51.058;13.826;2023-10-08T10:22:33;13.40;99.90
64620;DHT22;51029;51.058;13.826;2023-10-08T10:25:03;13.90;99.90
64620;DHT22;51029;51.058;13.826;2023-10-08T10:30:29;14.70;99.90
64620;DHT22;51029;51.058;13.826;2023-10-08T10:32:55;14.20;99.90
64620;DHT22;51029;51.058;13.826;2023-10-08T10:35:25;14.00;99.90
64620;DHT22;51029;51.058;13.826;2023-10-08T10:37:53;13.80;99.90
64620;DHT22;51029;51.058;13.826;2023-10-08T10:40:24;14.00;99.90
64620;DHT22;51029;51.058;13.826;2023-10-08T10:42:58;14.40;99.90
64620;DHT22;51029;51.058;13.826;2023-10-08T10:45:28;14.10;99.90
64620;DHT22;51029;51.058;13.826;2023-10-08T10:48:08;13.80;99.90
64620;DHT22;51029;51.058;13.826;2023-10-08T10:50:51;13.70;99.90
64620;DHT22;51029;51.058;13.826;2023-10-08T10:53:39;14.10;99.90
64620;DHT22;51029;51.058;13.826;2023-10-08T10:56:33;14.10;99.90
64620;DHT22;51029;51.058;13.826;2023-10-08T10:59:05;14.40;99.90
64620;DHT22;51029;51.058;13.826;2023-10-08T11:01:53;14.40;99.90
64620;DHT22;51029;51.058;13.826;2023-10-08T11:04:31;14.40;99.90
64620;DHT22;51029;51.058;13.826;2023-10-08T11:06:57;14.40;99.90
64620;DHT22;51029;51.058;13.826;2023-10-08T11:09:26;14.20;99.90
64620;DHT22;51029;51.058;13.826;2023-10-08T11:12:02;14.10;99.90
64620;DHT22;51029;51.058;13.826;2023-10-08T11:14:28;14.00;99.90
64620;DHT22;51029;51.058;13.826;2023-10-08T11:16:54;13.60;99.90
64620;DHT22;51029;51.058;13.826;2023-10-08T11:19:20;13.60;99.90
64620;DHT22;51029;51.058;13.826;2023-10-08T11:21:52;14.00;99.90
64620;DHT22;51029;51.058;13.826;2023-10-08T11:24:30;14.50;99.90
64620;DHT22;51029;51.058;13.826;2023-10-08T11:26:59;14.70;99.90
64620;DHT22;51029;51.058;13.826;2023-10-08T11:29:42;15.20;99.90
64620;DHT22;51029;51.058;13.826;2023-10-08T11:32:08;15.50;99.90
64620;DHT22;51029;51.058;13.826;2023-10-08T11:34:40;15.10;99.90
64620;DHT22;51029;51.058;13.826;2023-10-08T11:37:06;15.30;99.90
64620;DHT22;51029;51.058;13.826;2023-10-08T11:39:48;15.70;99.90
64620;DHT22;51029;51.058;13.826;2023-10-08T11:42:15;15.60;99.90
64620;DHT22;51029;51.058;13.826;2023-10-08T11:45:09;15.40;99.90
64620;DHT22;51029;51.058;13.826;2023-10-08T11:47:47;16.00;99.90
64620;DHT22;51029;51.058;13.826;2023-10-08T11:50:24;16.00;99.90
64620;DHT22;51029;51.058;13.826;2023-10-08T11:52:59;15.20;99.90
64620;DHT22;51029;51.058;13.826;2023-10-08T11:55:29;15.40;99.90
64620;DHT22;51029;51.058;13.826;2023-10-08T11:57:59;16.00;99.90
64620;DHT22;51029;51.058;13.826;2023-10-08T12:00:26;17.00;99.90
64620;DHT22;51029;51.058;13.826;2023-10-08T12:02:52;17.10;99.90
64620;DHT22;51029;51.058;13.826;2023-10-08T12:05:21;17.50;99.90
64620;DHT22;51029;51.058;13.826;2023-10-08T12:07:53;18.20;99.90
64620;DHT22;51029;51.058;13.826;2023-10-08T12:10:23;18.60;99.90
64620;DHT22;51029;51.058;13.826;2023-10-08T12:12:50;17.60;99.90
64620;DHT22;51029;51.058;13.826;2023-10-08T12:15:18;17.80;99.90
64620;DHT22;51029;51.058;13.826;2023-10-08T12:17:48;16.00;99.90
64620;DHT22;51029;51.058;13.826;2023-10-08T12:20:34;15.60;99.90
64620;DHT22;51029;51.058;13.826;2023-10-08T12:23:02;15.40;99.90
64620;DHT22;51029;51.058;13.826;2023-10-08T12:25:27;15.60;99.90
64620;DHT22;51029;51.058;13.826;2023-10-08T12:27:53;15.70;99.90
64620;DHT22;51029;51.058;13.826;2023-10-08T12:30:19;15.70;99.90
64620;DHT22;51029;51.058;13.826;2023-10-08T12:32:44;15.70;99.90
64620;DHT22;51029;51.058;13.826;2023-10-08T12:35:11;15.60;99.90
64620;DHT22;51029;51.058;13.826;2023-10-08T12:37:40;15.80;99.90
64620;DHT22;51029;51.058;13.826;2023-10-08T12:40:07;15.90;99.90
64620;DHT22;51029;51.058;13.826;2023-10-08T12:42:49;15.80;99.90
64620;DHT22;51029;51.058;13.826;2023-10-08T12:45:15;15.80;99.90
64620;DHT22;51029;51.058;13.826;2023-10-08T12:47:47;15.60;99.90
64620;DHT22;51029;51.058;13.826;2023-10-08T12:50:12;15.50;99.90
64620;DHT22;51029;51.058;13.826;2023-10-08T12:52:44;15.40;99.90
64620;DHT22;51029;51.058;13.826;2023-10-08T12:55:20;15.40;99.90
64620;DHT22;51029;51.058;13.826;2023-10-08T12:57:52;16.20;99.90
64620;DHT22;51029;51.058;13.826;2023-10-08T13:00:25;17.80;99.90
64620;DHT22;51029;51.058;13.826;2023-10-08T13:02:51;18.40;99.90
64620;DHT22;51029;51.058;13.826;2023-10-08T13:05:21;18.20;99.90
64620;DHT22;51029;51.058;13.826;2023-10-08T13:07:57;18.60;99.90
64620;DHT22;51029;51.058;13.826;2023-10-08T13:10:28;18.60;99.90
64620;DHT22;51029;51.058;13.826;2023-10-08T13:12:54;18.90;99.90
64620;DHT22;51029;51.058;13.826;2023-10-08T13:15:20;19.10;99.90
64620;DHT22;51029;51.058;13.826;2023-10-08T13:17:46;18.90;99.90
64620;DHT22;51029;51.058;13.826;2023-10-08T13:20:12;17.80;99.90
64620;DHT22;51029;51.058;13.826;2023-10-08T13:22:39;17.50;99.90
64620;DHT22;51029;51.058;13.826;2023-10-08T13:25:05;17.20;99.90
64620;DHT22;51029;51.058;13.826;2023-10-08T13:27:32;16.90;99.90
64620;DHT22;51029;51.058;13.826;2023-10-08T13:29:57;17.00;99.90
64620;DHT22;51029;51.058;13.826;2023-10-08T13:32:24;16.90;99.90
64620;DHT22;51029;51.058;13.826;2023-10-08T13:34:49;16.90;99.90
64620;DHT22;51029;51.058;13.826;2023-10-08T13:37:15;16.90;99.90
64620;DHT22;51029;51.058;13.826;2023-10-08T13:39:41;17.10;99.90
64620;DHT22;51029;51.058;13.826;2023-10-08T13:42:07;18.60;99.90
64620;DHT22;51029;51.058;13.826;2023-10-08T13:44:32;20.90;99.30
64620;DHT22;51029;51.058;13.826;2023-10-08T13:47:00;23.10;93.40
64620;DHT22;51029;51.058;13.826;2023-10-08T13:49:31;23.80;84.00
64620;DHT22;51029;51.058;13.826;2023-10-08T13:51:57;25.30;78.40
64620;DHT22;51029;51.058;13.826;2023-10-08T13:54:23;25.70;75.20
64620;DHT22;51029;51.058;13.826;2023-10-08T13:56:55;26.60;67.20
64620;DHT22;51029;51.058;13.826;2023-10-08T13:59:20;26.70;63.50
64620;DHT22;51029;51.058;13.826;2023-10-08T14:01:50;27.30;60.40
64620;DHT22;51029;51.058;13.826;2023-10-08T14:04:20;27.60;56.70
64620;DHT22;51029;51.058;13.826;2023-10-08T14:06:46;27.60;56.20
64620;DHT22;51029;51.058;13.826;2023-10-08T14:09:20;27.20;54.50
64620;DHT22;51029;51.058;13.826;2023-10-08T14:11:50;26.70;56.00
64620;DHT22;51029;51.058;13.826;2023-10-08T14:14:18;27.10;53.90
64620;DHT22;51029;51.058;13.826;2023-10-08T14:16:45;27.40;53.70
64620;DHT22;51029;51.058;13.826;2023-10-08T14:19:13;27.70;53.80
64620;DHT22;51029;51.058;13.826;2023-10-08T14:21:40;27.10;53.10
64620;DHT22;51029;51.058;13.826;2023-10-08T14:24:19;25.30;53.20
64620;DHT22;51029;51.058;13.826;2023-10-08T14:26:45;23.10;57.90
64620;DHT22;51029;51.058;13.826;2023-10-08T14:29:17;21.50;61.60
64620;DHT22;51029;51.058;13.826;2023-10-08T14:31:43;22.50;64.10
64620;DHT22;51029;51.058;13.826;2023-10-08T14:34:14;23.20;61.60
64620;DHT22;51029;51.058;13.826;2023-10-08T14:36:49;22.40;67.20
64620;DHT22;51029;51.058;13.826;2023-10-08T14:39:34;21.30;68.20
64620;DHT22;51029;51.058;13.826;2023-10-08T14:42:19;20.30;70.30
64620;DHT22;51029;51.058;13.826;2023-10-08T14:45:04;19.20;77.60
64620;DHT22;51029;51.058;13.826;2023-10-08T14:47:36;18.60;79.00
64620;DHT22;51029;51.058;13.826;2023-10-08T14:50:02;18.00;84.50
64620;DHT22;51029;51.058;13.826;2023-10-08T14:52:30;17.50;88.30
64620;DHT22;51029;51.058;13.826;2023-10-08T14:54:56;16.90;99.80
64620;DHT22;51029;51.058;13.826;2023-10-08T14:57:22;16.60;99.90
64620;DHT22;51029;51.058;13.826;2023-10-08T14:59:48;16.20;99.90
64620;DHT22;51029;51.058;13.826;2023-10-08T15:02:13;15.80;99.90
64620;DHT22;51029;51.058;13.826;2023-10-08T15:04:39;15.60;99.90
64620;DHT22;51029;51.058;13.826;2023-10-08T15:07:08;15.50;99.90
64620;DHT22;51029;51.058;13.826;2023-10-08T15:09:36;15.30;99.90
64620;DHT22;51029;51.058;13.826;2023-10-08T15:12:03;15.10;99.90
64620;DHT22;51029;51.058;13.826;2023-10-08T15:14:28;15.00;99.90
64620;DHT22;51029;51.058;13.826;2023-10-08T15:16:54;14.70;99.90
64620;DHT22;51029;51.058;13.826;2023-10-08T15:19:22;14.50;99.90
64620;DHT22;51029;51.058;13.826;2023-10-08T15:21:48;14.30;99.90
64620;DHT22;51029;51.058;13.826;2023-10-08T15:24:16;14.20;99.90
64620;DHT22;51029;51.058;13.826;2023-10-08T15:26:42;14.00;99.90
64620;DHT22;51029;51.058;13.826;2023-10-08T15:29:07;14.00;99.90
64620;DHT22;51029;51.058;13.826;2023-10-08T15:31:33;14.00;99.90
64620;DHT22;51029;51.058;13.826;2023-10-08T15:33:59;14.00;99.90
64620;DHT22;51029;51.058;13.826;2023-10-08T15:36:25;13.90;99.90
64620;DHT22;51029;51.058;13.826;2023-10-08T15:38:52;13.90;99.90
64620;DHT22;51029;51.058;13.826;2023-10-08T15:41:17;13.80;99.90
64620;DHT22;51029;51.058;13.826;2023-10-08T15:43:55;13.90;99.90
64620;DHT22;51029;51.058;13.826;2023-10-08T15:46:24;13.90;99.90
64620;DHT22;51029;51.058;13.826;2023-10-08T15:48:52;13.70;99.90